Terminal Aerodrome Forecast
Issued by NWS

Home | Current Version | Previous Version | Text Only | Print | Product List | Glossary On
Versions: 1 2 3 4 5 6 7 8 9 10 11 12 13 14 15 16 17 18 19 20 21 22 23
000
FTAK31 PANC 202324
TAFATK
TAF
PATK 202324Z 2100/2124 VRB02KT P6SM -RA SCT007 OVC045
     FM210600 VRB03KT P6SM SCT040
     FM212100 VRB03KT P6SM -RA OVC025=

USA.gov is the U.S. government's official web portal to all federal, state and local government web resources and services.